createdAt,value
2018-01-25T00:01:39.785Z,101029.77
2018-01-25T00:04:08.828Z,101040.77
2018-01-25T00:06:37.188Z,101036.53
2018-01-25T00:09:05.486Z,101032.53
2018-01-25T00:11:33.852Z,101024.88
2018-01-25T00:14:02.148Z,101032.45
2018-01-25T00:16:30.456Z,101032.21
2018-01-25T00:18:58.744Z,101041.06
2018-01-25T00:21:27.082Z,101042.75
2018-01-25T00:23:55.360Z,101037.61
2018-01-25T00:26:23.656Z,101047.31
2018-01-25T00:28:51.966Z,101038.59
2018-01-25T00:31:20.275Z,101038.77
2018-01-25T00:33:49.357Z,101038.72
2018-01-25T00:36:17.638Z,101041.33
2018-01-25T00:38:45.932Z,101033.02
2018-01-25T00:41:15.018Z,101036.39
2018-01-25T00:43:43.323Z,101032.50
2018-01-25T00:46:12.379Z,101042.52
2018-01-25T00:48:40.697Z,101046.50
2018-01-25T00:51:09.770Z,101037.61
2018-01-25T00:53:38.063Z,101034.42
2018-01-25T00:56:06.368Z,101050.88
2018-01-25T00:58:35.428Z,101045.66
2018-01-25T01:01:03.714Z,101045.23
2018-01-25T01:03:31.999Z,101046.66
2018-01-25T01:06:00.309Z,101054.31
2018-01-25T01:08:29.374Z,101050.59
2018-01-25T01:10:57.683Z,101044.95
2018-01-25T01:13:26.758Z,101059.40
2018-01-25T01:15:55.043Z,101051.51
2018-01-25T01:18:24.124Z,101052.02
2018-01-25T01:20:52.429Z,101050.69
2018-01-25T01:23:20.767Z,101052.84
2018-01-25T01:25:49.325Z,101050.41
2018-01-25T01:28:17.651Z,101052.16
2018-01-25T01:30:45.969Z,101050.91
2018-01-25T01:33:14.275Z,101060.23
2018-01-25T01:35:42.585Z,101055.41
2018-01-25T01:38:10.897Z,101062.89
2018-01-25T01:40:39.334Z,101072.34
2018-01-25T01:43:08.443Z,101064.78
2018-01-25T01:45:37.587Z,101066.61
2018-01-25T01:48:05.877Z,101067.34
2018-01-25T01:50:34.201Z,101075.98
2018-01-25T01:53:02.491Z,101075.56
2018-01-25T01:55:30.793Z,101074.83
2018-01-25T01:57:59.083Z,101071.58
2018-01-25T02:00:27.403Z,101087.13
2018-01-25T02:02:56.470Z,101073.83
2018-01-25T02:05:24.789Z,101076.39
2018-01-25T02:07:53.095Z,101071.48
2018-01-25T02:10:21.387Z,101080.30
2018-01-25T02:12:49.749Z,101083.75
2018-01-25T02:15:18.045Z,101091.35
2018-01-25T02:17:46.467Z,101088.36
2018-01-25T02:20:14.769Z,101099.72
2018-01-25T02:22:43.825Z,101099.33
2018-01-25T02:25:12.115Z,101101.87
2018-01-25T02:27:40.411Z,101108.02
2018-01-25T02:30:08.695Z,101101.45
2018-01-25T02:32:37.010Z,101108.23
2018-01-25T02:35:05.482Z,101103.91
2018-01-25T02:37:34.555Z,101102.38
2018-01-25T02:40:02.849Z,101105.16
2018-01-25T02:42:31.144Z,101108.44
2018-01-25T02:45:00.262Z,101110.23
2018-01-25T02:47:28.606Z,101111.48
2018-01-25T02:49:56.892Z,101108.08
2018-01-25T02:52:25.218Z,101103.67
2018-01-25T02:54:53.591Z,101099.74
2018-01-25T02:57:21.887Z,101104.56
2018-01-25T02:59:50.163Z,101103.50
2018-01-25T03:02:18.453Z,101100.75
2018-01-25T03:04:46.757Z,101104.89
2018-01-25T03:07:15.063Z,101106.54
2018-01-25T03:09:44.135Z,101105.53
2018-01-25T03:12:13.345Z,101116.41
2018-01-25T03:14:41.641Z,101111.77
2018-01-25T03:17:09.957Z,101116.18
2018-01-25T03:19:38.255Z,101119.08
2018-01-25T03:22:06.538Z,101119.78
2018-01-25T03:24:34.857Z,101124.10
2018-01-25T03:27:03.219Z,101126.73
2018-01-25T03:29:31.519Z,101126.70
2018-01-25T03:31:59.809Z,101123.64
2018-01-25T03:34:28.203Z,101125.21
2018-01-25T03:36:57.929Z,101119.53
2018-01-25T03:39:27.018Z,101122.42
2018-01-25T03:41:56.083Z,101124.23
2018-01-25T03:44:24.400Z,101128.16
2018-01-25T03:46:53.483Z,101125.95
2018-01-25T03:49:22.653Z,101124.36
2018-01-25T03:51:50.978Z,101124.17
2018-01-25T03:54:19.321Z,101125.23
2018-01-25T03:56:47.627Z,101126.98
2018-01-25T03:59:15.943Z,101124.11
2018-01-25T04:01:44.251Z,101126.09
2018-01-25T04:04:12.541Z,101128.75
2018-01-25T04:06:40.821Z,101125.67
2018-01-25T04:09:09.159Z,101127.74
2018-01-25T04:11:37.491Z,101124.39
2018-01-25T04:14:05.779Z,101137.70
2018-01-25T04:16:34.100Z,101129.22
2018-01-25T04:19:03.235Z,101134.27
2018-01-25T04:21:31.563Z,101130.59
2018-01-25T04:23:59.909Z,101138.59
2018-01-25T04:26:28.479Z,101134.33
2018-01-25T04:28:56.798Z,101143.47
2018-01-25T04:31:25.130Z,101130.99
2018-01-25T04:33:53.453Z,101127.83
2018-01-25T04:36:21.742Z,101123.00
2018-01-25T04:38:50.056Z,101135.58
2018-01-25T04:41:19.131Z,101138.43
2018-01-25T04:43:47.448Z,101144.17
2018-01-25T04:46:16.498Z,101144.41
2018-01-25T04:48:44.787Z,101133.30
2018-01-25T04:51:13.098Z,101133.16
2018-01-25T04:53:42.150Z,101124.66
2018-01-25T04:56:10.440Z,101135.11
2018-01-25T04:58:38.762Z,101136.33
2018-01-25T05:01:07.919Z,101137.58
2018-01-25T05:03:36.212Z,101137.36
2018-01-25T05:06:04.789Z,101135.34
2018-01-25T05:08:33.090Z,101133.90
2018-01-25T05:11:01.393Z,101129.78
2018-01-25T05:13:30.446Z,101129.99
2018-01-25T05:15:58.746Z,101132.02
2018-01-25T05:18:27.041Z,101131.05
2018-01-25T05:20:55.342Z,101138.48
2018-01-25T05:23:24.467Z,101142.38
2018-01-25T05:25:52.806Z,101137.38
2018-01-25T05:28:21.104Z,101135.95
2018-01-25T05:30:50.193Z,101138.53
2018-01-25T05:33:18.487Z,101146.16
2018-01-25T05:35:47.610Z,101141.67
2018-01-25T05:38:15.896Z,101140.48
2018-01-25T05:40:44.272Z,101145.63
2018-01-25T05:43:12.576Z,101141.82
2018-01-25T05:45:40.880Z,101146.00
2018-01-25T05:48:09.252Z,101141.89
2018-01-25T05:50:37.560Z,101141.34
2018-01-25T05:53:05.950Z,101149.59
2018-01-25T05:55:34.256Z,101147.44
2018-01-25T05:58:02.569Z,101160.25
2018-01-25T06:00:30.870Z,101154.42
2018-01-25T06:02:59.176Z,101150.84
2018-01-25T06:05:28.309Z,101157.34
2018-01-25T06:07:56.607Z,101162.16
2018-01-25T06:10:24.985Z,101162.48
2018-01-25T06:12:53.285Z,101157.39
2018-01-25T06:15:21.589Z,101153.44
2018-01-25T06:17:49.893Z,101167.91
2018-01-25T06:20:19.018Z,101169.57
2018-01-25T06:22:47.326Z,101172.23
2018-01-25T06:25:15.623Z,101172.05
2018-01-25T06:27:43.937Z,101158.42
2018-01-25T06:30:13.003Z,101159.58
2018-01-25T06:32:41.295Z,101161.41
2018-01-25T06:35:09.680Z,101164.49
2018-01-25T06:37:38.078Z,101162.33
2018-01-25T06:40:06.379Z,101156.17
2018-01-25T06:42:35.444Z,101157.00
2018-01-25T06:45:03.760Z,101156.08
2018-01-25T06:47:32.050Z,101161.41
2018-01-25T06:50:00.351Z,101154.97
2018-01-25T06:52:28.674Z,101173.61
2018-01-25T06:54:57.055Z,101166.54
2018-01-25T06:57:25.348Z,101171.16
2018-01-25T06:59:53.669Z,101170.47
2018-01-25T07:02:21.984Z,101166.79
2018-01-25T07:04:51.055Z,101165.31
2018-01-25T07:07:19.450Z,101162.75
2018-01-25T07:09:48.389Z,101174.32
2018-01-25T07:12:16.705Z,101165.09
2018-01-25T07:14:45.068Z,101173.61
2018-01-25T07:17:13.366Z,101175.98
2018-01-25T07:19:41.676Z,101185.72
2018-01-25T07:22:09.976Z,101182.64
2018-01-25T07:24:38.310Z,101184.52
2018-01-25T07:27:06.620Z,101187.33
2018-01-25T07:29:34.903Z,101186.64
2018-01-25T07:32:03.270Z,101182.78
2018-01-25T07:34:32.337Z,101177.47
2018-01-25T07:37:01.395Z,101183.63
2018-01-25T07:39:29.737Z,101187.30
2018-01-25T07:41:58.044Z,101194.69
2018-01-25T07:44:26.506Z,101189.47
2018-01-25T07:46:55.048Z,101193.09
2018-01-25T07:49:25.308Z,101188.12
2018-01-25T07:51:53.640Z,101196.44
2018-01-25T07:54:23.813Z,101189.00
2018-01-25T07:56:52.464Z,101189.83
2018-01-25T07:59:20.774Z,101189.50
2018-01-25T08:01:49.844Z,101194.24
2018-01-25T08:04:18.162Z,101186.26
2018-01-25T08:06:46.466Z,101194.72
2018-01-25T08:09:14.842Z,101195.18
2018-01-25T08:11:43.166Z,101198.48
2018-01-25T08:14:11.464Z,101196.76
2018-01-25T08:16:45.220Z,101200.75
2018-01-25T08:19:13.554Z,101205.48
2018-01-25T08:21:42.762Z,101205.58
2018-01-25T08:24:11.824Z,101204.48
2018-01-25T08:26:40.157Z,101210.55
2018-01-25T08:29:09.953Z,101200.66
2018-01-25T08:31:39.060Z,101208.39
2018-01-25T08:34:08.117Z,101208.30
2018-01-25T08:36:36.408Z,101208.62
2018-01-25T08:39:05.404Z,101212.49
2018-01-25T08:41:33.742Z,101207.48
2018-01-25T08:44:02.044Z,101206.19
2018-01-25T08:46:30.337Z,101209.09
2018-01-25T08:48:58.656Z,101202.83
2018-01-25T08:51:26.968Z,101207.89
2018-01-25T08:53:55.264Z,101192.44
2018-01-25T08:56:23.557Z,101195.02
2018-01-25T08:58:51.867Z,101197.92
2018-01-25T09:01:20.172Z,101203.98
2018-01-25T09:03:49.223Z,101205.13
2018-01-25T09:06:17.585Z,101203.52
2018-01-25T09:08:46.389Z,101205.19
2018-01-25T09:11:14.717Z,101206.79
2018-01-25T09:13:43.030Z,101206.14
2018-01-25T09:16:11.341Z,101207.02
2018-01-25T09:18:39.650Z,101212.80
2018-01-25T09:21:07.942Z,101213.83
2018-01-25T09:23:36.272Z,101219.44
2018-01-25T09:26:04.572Z,101220.35
2018-01-25T09:28:32.880Z,101224.36
2018-01-25T09:31:01.192Z,101221.78
2018-01-25T09:33:29.512Z,101216.58
2018-01-25T09:35:57.826Z,101217.44
2018-01-25T09:38:26.126Z,101218.09
2018-01-25T09:40:55.245Z,101221.40
2018-01-25T09:43:23.640Z,101225.80
2018-01-25T09:45:51.953Z,101230.54
2018-01-25T09:48:20.265Z,101225.02
2018-01-25T09:50:49.364Z,101224.00
2018-01-25T09:53:18.444Z,101218.59
2018-01-25T09:55:46.760Z,101223.53
2018-01-25T09:58:15.832Z,101225.09
2018-01-25T10:00:44.147Z,101228.24
2018-01-25T10:03:12.466Z,101225.89
2018-01-25T10:05:40.799Z,101232.64
2018-01-25T10:08:09.870Z,101235.25
2018-01-25T10:10:38.184Z,101227.93
2018-01-25T10:13:07.294Z,101221.31
2018-01-25T10:15:35.643Z,101229.27
2018-01-25T10:18:03.956Z,101225.89
2018-01-25T10:20:32.247Z,101225.77
2018-01-25T10:23:00.570Z,101226.30
2018-01-25T10:25:28.870Z,101237.43
2018-01-25T10:27:57.214Z,101225.65
2018-01-25T10:30:25.536Z,101227.63
2018-01-25T10:32:53.847Z,101224.94
2018-01-25T10:35:22.140Z,101216.83
2018-01-25T10:37:50.430Z,101219.50
2018-01-25T10:40:18.742Z,101215.70
2018-01-25T10:42:47.054Z,101219.23
2018-01-25T10:45:16.116Z,101221.91
2018-01-25T10:47:44.460Z,101223.56
2018-01-25T10:50:12.778Z,101226.87
2018-01-25T10:52:41.073Z,101225.94
2018-01-25T10:55:09.502Z,101215.97
2018-01-25T10:57:37.832Z,101221.22
2018-01-25T11:00:06.226Z,101213.32
2018-01-25T11:02:34.574Z,101207.88
2018-01-25T11:05:03.190Z,101205.52
2018-01-25T11:07:31.521Z,101203.77
2018-01-25T11:09:59.818Z,101195.33
2018-01-25T11:12:28.176Z,101197.52
2018-01-25T11:14:56.502Z,101203.69
2018-01-25T11:17:24.915Z,101196.63
2018-01-25T11:19:53.262Z,101186.27
2018-01-25T11:22:21.556Z,101187.59
2018-01-25T11:24:49.866Z,101193.69
2018-01-25T11:27:18.180Z,101186.91
2018-01-25T11:29:46.504Z,101181.66
2018-01-25T11:32:14.826Z,101179.91
2018-01-25T11:34:43.933Z,101169.02
2018-01-25T11:37:12.229Z,101177.13
2018-01-25T11:39:40.557Z,101178.17
2018-01-25T11:42:08.855Z,101185.15
2018-01-25T11:44:37.318Z,101185.15
2018-01-25T11:47:05.617Z,101182.91
2018-01-25T11:49:33.963Z,101184.85
2018-01-25T11:52:02.286Z,101199.45
2018-01-25T11:54:30.614Z,101199.86
2018-01-25T11:56:58.905Z,101194.02
2018-01-25T11:59:27.236Z,101201.77
2018-01-25T12:01:56.309Z,101202.27
2018-01-25T12:04:25.371Z,101197.34
2018-01-25T12:06:53.679Z,101212.87
2018-01-25T12:09:22.777Z,101201.22
2018-01-25T12:11:51.074Z,101206.98
2018-01-25T12:14:19.380Z,101207.83
2018-01-25T12:16:48.464Z,101207.20
2018-01-25T12:19:16.757Z,101205.59
2018-01-25T12:21:45.826Z,101197.38
2018-01-25T12:24:14.138Z,101190.66
2018-01-25T12:26:43.219Z,101199.42
2018-01-25T12:29:11.541Z,101189.44
2018-01-25T12:31:39.858Z,101185.52
2018-01-25T12:34:08.160Z,101186.27
2018-01-25T12:36:36.461Z,101193.06
2018-01-25T12:39:04.765Z,101202.54
2018-01-25T12:41:33.168Z,101198.32
2018-01-25T12:44:01.475Z,101190.28
2018-01-25T12:46:29.775Z,101193.50
2018-01-25T12:48:58.077Z,101187.92
2018-01-25T12:51:27.147Z,101189.06
2018-01-25T12:53:55.496Z,101187.52
2018-01-25T12:56:23.795Z,101177.84
2018-01-25T12:58:52.182Z,101173.84
2018-01-25T13:01:20.481Z,101174.37
2018-01-25T13:03:48.803Z,101165.98
2018-01-25T13:06:17.101Z,101161.36
2018-01-25T13:08:45.437Z,101158.98
2018-01-25T13:11:13.737Z,101167.52
2018-01-25T13:13:42.849Z,101158.67
2018-01-25T13:16:11.895Z,101153.62
2018-01-25T13:18:40.208Z,101147.36
2018-01-25T13:21:09.276Z,101146.52
2018-01-25T13:23:37.595Z,101147.03
2018-01-25T13:26:06.707Z,101155.48
2018-01-25T13:28:35.049Z,101158.58
2018-01-25T13:31:03.360Z,101137.77
2018-01-25T13:33:37.893Z,101145.80
2018-01-25T13:36:06.217Z,101137.69
2018-01-25T13:38:34.550Z,101130.38
2018-01-25T13:41:03.613Z,101130.79
2018-01-25T13:43:32.254Z,101130.06
2018-01-25T13:46:00.557Z,101128.70
2018-01-25T13:48:28.864Z,101121.81
2018-01-25T13:50:57.191Z,101129.13
2018-01-25T13:53:25.502Z,101129.94
2018-01-25T13:55:53.799Z,101131.07
2018-01-25T13:58:22.153Z,101131.58
2018-01-25T14:00:50.484Z,101132.62
2018-01-25T14:03:18.881Z,101130.05
2018-01-25T14:05:47.971Z,101129.94
2018-01-25T14:08:16.272Z,101125.95
2018-01-25T14:10:45.452Z,101125.94
2018-01-25T14:13:13.773Z,101136.73
2018-01-25T14:15:42.071Z,101131.98
2018-01-25T14:18:10.375Z,101134.87
2018-01-25T14:20:38.703Z,101137.23
2018-01-25T14:23:07.025Z,101129.53
2018-01-25T14:25:35.325Z,101130.26
2018-01-25T14:28:03.639Z,101128.41
2018-01-25T14:30:32.715Z,101125.20
2018-01-25T14:33:01.031Z,101133.62
2018-01-25T14:35:29.369Z,101137.85
2018-01-25T14:37:58.349Z,101140.61
2018-01-25T14:40:26.669Z,101137.61
2018-01-25T14:42:55.008Z,101138.44
2018-01-25T14:45:23.313Z,101143.47
2018-01-25T14:47:51.641Z,101131.34
2018-01-25T14:50:19.963Z,101123.91
2018-01-25T14:52:48.267Z,101123.49
2018-01-25T14:55:16.590Z,101124.06
2018-01-25T14:57:44.893Z,101122.73
2018-01-25T15:00:13.209Z,101135.50
2018-01-25T15:02:41.529Z,101134.58
2018-01-25T15:05:09.861Z,101129.00
2018-01-25T15:07:38.163Z,101127.58
2018-01-25T15:10:06.478Z,101133.42
2018-01-25T15:12:34.797Z,101128.98
2018-01-25T15:15:03.103Z,101137.49
2018-01-25T15:17:31.434Z,101145.00
2018-01-25T15:19:59.763Z,101136.38
2018-01-25T15:22:28.069Z,101137.72
2018-01-25T15:25:02.737Z,101142.14
2018-01-25T15:27:34.016Z,101146.13
2018-01-25T15:30:02.581Z,101142.69
2018-01-25T15:32:30.878Z,101150.50
2018-01-25T15:34:59.175Z,101140.41
2018-01-25T15:37:27.478Z,101140.00
2018-01-25T15:39:56.542Z,101136.19
2018-01-25T15:42:24.856Z,101134.22
2018-01-25T15:44:53.915Z,101137.20
2018-01-25T15:47:22.230Z,101137.11
2018-01-25T15:49:51.465Z,101142.04
2018-01-25T15:52:19.781Z,101142.34
2018-01-25T15:54:48.089Z,101145.72
2018-01-25T15:57:16.611Z,101151.67
2018-01-25T15:59:44.927Z,101155.11
2018-01-25T16:02:13.275Z,101150.16
2018-01-25T16:04:41.596Z,101152.70
2018-01-25T16:07:10.011Z,101159.38
2018-01-25T16:09:39.201Z,101167.81
2018-01-25T16:12:07.508Z,101167.62
2018-01-25T16:14:36.605Z,101167.30
2018-01-25T16:17:05.749Z,101169.03
2018-01-25T16:19:34.107Z,101167.47
2018-01-25T16:22:02.436Z,101175.68
2018-01-25T16:24:30.734Z,101167.54
2018-01-25T16:26:59.081Z,101165.56
2018-01-25T16:29:27.387Z,101164.33
2018-01-25T16:31:55.711Z,101161.66
2018-01-25T16:34:24.021Z,101170.59
2018-01-25T16:36:52.319Z,101172.13
2018-01-25T16:39:20.633Z,101171.59
2018-01-25T16:41:49.706Z,101180.08
2018-01-25T16:44:18.005Z,101172.16
2018-01-25T16:46:46.314Z,101176.55
2018-01-25T16:49:14.723Z,101178.67
2018-01-25T16:51:43.772Z,101181.95
2018-01-25T16:54:13.183Z,101196.51
2018-01-25T16:56:42.274Z,101195.27
2018-01-25T16:59:11.371Z,101201.59
2018-01-25T17:01:39.673Z,101201.88
2018-01-25T17:04:09.608Z,101202.19
2018-01-25T17:06:37.927Z,101203.72
2018-01-25T17:09:06.227Z,101206.80
2018-01-25T17:11:34.575Z,101199.33
2018-01-25T17:14:02.937Z,101206.52
2018-01-25T17:16:31.242Z,101214.52
2018-01-25T17:18:59.556Z,101214.39
2018-01-25T17:21:27.899Z,101213.88
2018-01-25T17:23:56.236Z,101213.47
2018-01-25T17:26:25.914Z,101207.72
2018-01-25T17:28:54.242Z,101203.43
2018-01-25T17:31:23.320Z,101201.69
2018-01-25T17:33:51.635Z,101204.58
2018-01-25T17:36:19.987Z,101201.49
2018-01-25T17:38:48.305Z,101200.34
2018-01-25T17:41:17.078Z,101194.56
2018-01-25T17:43:46.168Z,101192.11
2018-01-25T17:46:15.257Z,101202.15
2018-01-25T17:48:43.584Z,101211.45
2018-01-25T17:51:11.899Z,101217.36
2018-01-25T17:53:40.202Z,101215.41
2018-01-25T17:56:09.330Z,101218.47
2018-01-25T17:58:37.711Z,101234.70
2018-01-25T18:01:06.023Z,101234.61
2018-01-25T18:03:34.342Z,101242.61
2018-01-25T18:06:02.640Z,101245.16
2018-01-25T18:08:31.724Z,101250.53
2018-01-25T18:11:00.076Z,101244.55
2018-01-25T18:13:28.436Z,101242.80
2018-01-25T18:15:56.917Z,101243.27
2018-01-25T18:18:25.215Z,101240.74
2018-01-25T18:20:54.148Z,101251.09
2018-01-25T18:23:22.498Z,101241.70
2018-01-25T18:25:51.894Z,101247.19
2018-01-25T18:28:20.269Z,101249.84
2018-01-25T18:30:48.607Z,101249.98
2018-01-25T18:33:17.007Z,101249.94
2018-01-25T18:35:45.387Z,101242.63
2018-01-25T18:38:14.478Z,101232.27
2018-01-25T18:40:42.824Z,101230.80
2018-01-25T18:43:11.972Z,101231.31
2018-01-25T18:45:41.072Z,101241.80
2018-01-25T18:48:10.155Z,101240.87
2018-01-25T18:50:38.475Z,101247.73
2018-01-25T18:53:06.838Z,101238.28
2018-01-25T18:55:35.925Z,101244.13
2018-01-25T18:58:04.232Z,101252.59
2018-01-25T19:00:32.577Z,101257.23
2018-01-25T19:03:00.912Z,101267.87
2018-01-25T19:05:29.214Z,101269.58
2018-01-25T19:07:58.290Z,101257.34
2018-01-25T19:10:26.650Z,101255.38
2018-01-25T19:12:55.719Z,101247.05
2018-01-25T19:15:24.022Z,101247.64
2018-01-25T19:17:53.126Z,101253.39
2018-01-25T19:20:21.464Z,101256.89
2018-01-25T19:22:49.879Z,101250.91
2018-01-25T19:25:18.173Z,101249.58
2018-01-25T19:27:47.280Z,101248.45
2018-01-25T19:30:16.390Z,101253.47
2018-01-25T19:32:44.685Z,101253.87
2018-01-25T19:35:13.032Z,101261.47
2018-01-25T19:37:42.160Z,101252.50
2018-01-25T19:40:10.505Z,101257.19
2018-01-25T19:42:38.850Z,101242.61
2018-01-25T19:45:07.191Z,101240.36
2018-01-25T19:47:35.531Z,101238.89
2018-01-25T19:50:04.711Z,101239.90
2018-01-25T19:52:33.109Z,101252.58
2018-01-25T19:55:01.420Z,101254.86
2018-01-25T19:57:30.499Z,101251.23
2018-01-25T19:59:59.014Z,101258.16
2018-01-25T20:02:27.355Z,101248.92
2018-01-25T20:04:55.679Z,101253.06
2018-01-25T20:07:24.754Z,101253.80
2018-01-25T20:09:53.088Z,101256.83
2018-01-25T20:12:21.432Z,101251.09
2018-01-25T20:14:50.770Z,101244.66
2018-01-25T20:17:19.230Z,101246.72
2018-01-25T20:19:49.308Z,101247.37
2018-01-25T20:22:18.442Z,101250.74
2018-01-25T20:24:46.808Z,101248.08
2018-01-25T20:27:15.168Z,101256.20
2018-01-25T20:29:43.493Z,101258.86
2018-01-25T20:32:12.572Z,101261.06
2018-01-25T20:34:41.143Z,101259.08
2018-01-25T20:37:10.415Z,101267.26
2018-01-25T20:39:38.724Z,101264.66
2018-01-25T20:42:07.072Z,101269.34
2018-01-25T20:44:36.174Z,101272.00
2018-01-25T20:47:04.469Z,101272.41
2018-01-25T20:49:33.358Z,101278.48
2018-01-25T20:52:01.691Z,101279.72
2018-01-25T20:54:30.010Z,101276.91
2018-01-25T20:56:58.588Z,101268.42
2018-01-25T20:59:27.206Z,101266.84
2018-01-25T21:01:55.610Z,101273.40
2018-01-25T21:04:23.946Z,101272.02
2018-01-25T21:06:53.038Z,101271.36
2018-01-25T21:09:22.308Z,101271.45
2018-01-25T21:11:50.672Z,101278.80
2018-01-25T21:14:19.038Z,101276.31
2018-01-25T21:16:47.383Z,101280.70
2018-01-25T21:19:15.716Z,101285.47
2018-01-25T21:21:44.026Z,101281.15
2018-01-25T21:24:12.333Z,101275.94
2018-01-25T21:26:41.431Z,101276.30
2018-01-25T21:29:10.547Z,101267.87
2018-01-25T21:31:38.841Z,101259.77
2018-01-25T21:34:07.148Z,101276.72
2018-01-25T21:36:35.446Z,101280.48
2018-01-25T21:39:03.738Z,101283.14
2018-01-25T21:41:32.072Z,101294.80
2018-01-25T21:44:00.404Z,101288.59
2018-01-25T21:46:28.744Z,101295.59
2018-01-25T21:48:57.064Z,101295.92
2018-01-25T21:51:25.364Z,101300.27
2018-01-25T21:53:54.493Z,101293.50
2018-01-25T21:56:22.806Z,101294.65
2018-01-25T21:58:51.124Z,101293.91
2018-01-25T22:01:19.452Z,101294.09
2018-01-25T22:03:47.793Z,101299.77
2018-01-25T22:06:16.874Z,101303.67
2018-01-25T22:08:45.166Z,101304.08
2018-01-25T22:11:13.468Z,101299.59
2018-01-25T22:13:41.780Z,101298.67
2018-01-25T22:16:10.094Z,101296.27
2018-01-25T22:18:39.042Z,101303.43
2018-01-25T22:21:08.127Z,101294.37
2018-01-25T22:23:36.827Z,101306.77
2018-01-25T22:26:05.113Z,101312.92
2018-01-25T22:28:33.419Z,101324.91
2018-01-25T22:31:01.721Z,101322.48
2018-01-25T22:33:30.035Z,101306.09
2018-01-25T22:35:59.192Z,101302.34
2018-01-25T22:38:27.544Z,101301.19
2018-01-25T22:40:55.882Z,101299.77
2018-01-25T22:43:24.312Z,101298.84
2018-01-25T22:45:52.621Z,101308.49
2018-01-25T22:48:20.965Z,101310.41
2018-01-25T22:50:50.058Z,101310.17
2018-01-25T22:53:18.392Z,101311.03
2018-01-25T22:55:46.720Z,101316.64
2018-01-25T22:58:15.073Z,101320.14
2018-01-25T23:00:43.402Z,101316.86
2018-01-25T23:03:11.702Z,101328.84
2018-01-25T23:05:40.054Z,101330.58
2018-01-25T23:08:08.377Z,101333.22
2018-01-25T23:10:36.756Z,101333.81
2018-01-25T23:13:05.073Z,101339.40
2018-01-25T23:15:34.193Z,101345.52
2018-01-25T23:18:02.529Z,101346.52
2018-01-25T23:20:30.835Z,101354.94
2018-01-25T23:22:59.159Z,101350.88
2018-01-25T23:25:27.623Z,101352.63
2018-01-25T23:27:56.679Z,101352.04
2018-01-25T23:30:25.760Z,101354.88
2018-01-25T23:32:54.087Z,101355.13
2018-01-25T23:35:23.218Z,101360.13
2018-01-25T23:37:51.525Z,101357.76
2018-01-25T23:40:19.886Z,101363.76
2018-01-25T23:42:48.213Z,101360.61
2018-01-25T23:45:16.523Z,101368.09
2018-01-25T23:47:45.630Z,101372.67
2018-01-25T23:50:14.017Z,101364.53
2018-01-25T23:52:42.609Z,101361.25
2018-01-25T23:55:10.926Z,101374.98
2018-01-25T23:57:40.097Z,101369.33
